Weather at Mayer Bryden Ranch Airport [CLOSED]

Public forecast

Using degrees Fahrenheit for public forecast. Weather courtesy of forecast.io.

Closest aviation weather report (METAR) to Mayer Bryden Ranch Airport

Closest report is Sonora Municipal Airport, 7.8 nm (14.4 km) E. Retrieved 2022/07/04 14:15 UTC (10 minutes ago):

KSOA 041415Z AUTO 16009G15KT 10SM CLR 26/19 A3012 RMK AO2

Closest aviation forecast (TAF) to Mayer Bryden Ranch Airport

Closest forecast is Sonora Municipal Airport, 7.8 nm (14.4 km) E. Retrieved 2022/07/04 12:34 UTC (2 hours ago):

TAF KSOA 041132Z 0412/0512 16009KT P6SM SCT250 FM041500 17012G20KT P6SM FEW250